sensor_id;sensor_type;location;lat;lon;timestamp;P1;durP1;ratioP1;P2;durP2;ratioP2
20976;SDS011;10647;51.016;3.720;2023-06-14T00:01:02;8.75;;;4.92;;
20976;SDS011;10647;51.016;3.720;2023-06-14T00:03:31;8.70;;;4.50;;
20976;SDS011;10647;51.016;3.720;2023-06-14T00:05:59;7.03;;;4.37;;
20976;SDS011;10647;51.016;3.720;2023-06-14T00:08:26;12.20;;;4.75;;
20976;SDS011;10647;51.016;3.720;2023-06-14T00:10:54;7.58;;;4.72;;
20976;SDS011;10647;51.016;3.720;2023-06-14T00:13:21;9.48;;;4.67;;
20976;SDS011;10647;51.016;3.720;2023-06-14T00:15:49;10.58;;;4.75;;
20976;SDS011;10647;51.016;3.720;2023-06-14T00:18:18;8.90;;;4.72;;
20976;SDS011;10647;51.016;3.720;2023-06-14T00:20:45;7.65;;;4.75;;
20976;SDS011;10647;51.016;3.720;2023-06-14T00:23:13;7.78;;;4.62;;
20976;SDS011;10647;51.016;3.720;2023-06-14T00:25:40;8.55;;;5.00;;
20976;SDS011;10647;51.016;3.720;2023-06-14T00:28:08;10.10;;;4.95;;
20976;SDS011;10647;51.016;3.720;2023-06-14T00:30:35;10.60;;;5.03;;
20976;SDS011;10647;51.016;3.720;2023-06-14T00:33:03;7.33;;;5.08;;
20976;SDS011;10647;51.016;3.720;2023-06-14T00:35:31;9.10;;;5.28;;
20976;SDS011;10647;51.016;3.720;2023-06-14T00:37:58;10.63;;;5.40;;
20976;SDS011;10647;51.016;3.720;2023-06-14T00:40:28;13.10;;;5.03;;
20976;SDS011;10647;51.016;3.720;2023-06-14T00:42:55;10.80;;;5.55;;
20976;SDS011;10647;51.016;3.720;2023-06-14T00:45:23;9.25;;;5.20;;
20976;SDS011;10647;51.016;3.720;2023-06-14T00:47:51;9.60;;;5.35;;
20976;SDS011;10647;51.016;3.720;2023-06-14T00:50:20;9.40;;;5.37;;
20976;SDS011;10647;51.016;3.720;2023-06-14T00:52:50;10.00;;;5.20;;
20976;SDS011;10647;51.016;3.720;2023-06-14T00:55:18;9.18;;;5.10;;
20976;SDS011;10647;51.016;3.720;2023-06-14T00:57:47;7.35;;;5.55;;
20976;SDS011;10647;51.016;3.720;2023-06-14T01:00:15;9.33;;;5.20;;
20976;SDS011;10647;51.016;3.720;2023-06-14T01:02:44;9.70;;;5.85;;
20976;SDS011;10647;51.016;3.720;2023-06-14T01:05:11;7.87;;;5.78;;
20976;SDS011;10647;51.016;3.720;2023-06-14T01:15:57;11.18;;;5.97;;
20976;SDS011;10647;51.016;3.720;2023-06-14T01:18:25;9.43;;;5.80;;
20976;SDS011;10647;51.016;3.720;2023-06-14T01:20:55;9.60;;;6.08;;
20976;SDS011;10647;51.016;3.720;2023-06-14T01:23:23;12.30;;;5.62;;
20976;SDS011;10647;51.016;3.720;2023-06-14T01:25:53;7.80;;;5.65;;
20976;SDS011;10647;51.016;3.720;2023-06-14T01:28:21;11.10;;;6.15;;
20976;SDS011;10647;51.016;3.720;2023-06-14T01:30:52;11.88;;;6.35;;
20976;SDS011;10647;51.016;3.720;2023-06-14T01:33:22;13.08;;;6.40;;
20976;SDS011;10647;51.016;3.720;2023-06-14T01:35:51;10.75;;;6.47;;
20976;SDS011;10647;51.016;3.720;2023-06-14T01:38:24;10.53;;;6.30;;
20976;SDS011;10647;51.016;3.720;2023-06-14T01:43:33;11.10;;;6.72;;
20976;SDS011;10647;51.016;3.720;2023-06-14T01:46:02;8.18;;;6.50;;
20976;SDS011;10647;51.016;3.720;2023-06-14T01:48:31;12.53;;;6.75;;
20976;SDS011;10647;51.016;3.720;2023-06-14T01:50:59;9.13;;;6.55;;
20976;SDS011;10647;51.016;3.720;2023-06-14T01:53:26;8.75;;;6.50;;
20976;SDS011;10647;51.016;3.720;2023-06-14T01:55:54;9.13;;;6.25;;
20976;SDS011;10647;51.016;3.720;2023-06-14T01:58:22;13.60;;;6.67;;
20976;SDS011;10647;51.016;3.720;2023-06-14T02:00:51;11.03;;;7.30;;
20976;SDS011;10647;51.016;3.720;2023-06-14T02:03:21;11.20;;;6.78;;
20976;SDS011;10647;51.016;3.720;2023-06-14T02:05:49;12.05;;;6.70;;
20976;SDS011;10647;51.016;3.720;2023-06-14T02:08:17;11.10;;;7.17;;
20976;SDS011;10647;51.016;3.720;2023-06-14T02:10:45;10.38;;;6.85;;
20976;SDS011;10647;51.016;3.720;2023-06-14T02:13:13;13.18;;;7.10;;
20976;SDS011;10647;51.016;3.720;2023-06-14T02:15:41;13.72;;;7.30;;
20976;SDS011;10647;51.016;3.720;2023-06-14T02:18:12;11.25;;;6.97;;
20976;SDS011;10647;51.016;3.720;2023-06-14T02:20:39;10.08;;;7.00;;
20976;SDS011;10647;51.016;3.720;2023-06-14T02:23:09;10.08;;;6.60;;
20976;SDS011;10647;51.016;3.720;2023-06-14T02:25:36;9.55;;;6.62;;
20976;SDS011;10647;51.016;3.720;2023-06-14T02:28:05;11.73;;;7.28;;
20976;SDS011;10647;51.016;3.720;2023-06-14T02:30:32;11.68;;;6.75;;
20976;SDS011;10647;51.016;3.720;2023-06-14T02:33:00;10.38;;;6.65;;
20976;SDS011;10647;51.016;3.720;2023-06-14T02:35:29;9.23;;;6.80;;
20976;SDS011;10647;51.016;3.720;2023-06-14T02:37:58;11.83;;;6.85;;
20976;SDS011;10647;51.016;3.720;2023-06-14T02:40:27;11.48;;;7.15;;
20976;SDS011;10647;51.016;3.720;2023-06-14T02:42:55;11.20;;;7.10;;
20976;SDS011;10647;51.016;3.720;2023-06-14T02:45:22;12.00;;;6.70;;
20976;SDS011;10647;51.016;3.720;2023-06-14T02:47:50;12.95;;;6.80;;
20976;SDS011;10647;51.016;3.720;2023-06-14T02:50:18;9.35;;;6.62;;
20976;SDS011;10647;51.016;3.720;2023-06-14T02:52:47;15.68;;;7.20;;
20976;SDS011;10647;51.016;3.720;2023-06-14T02:55:14;12.75;;;6.90;;
20976;SDS011;10647;51.016;3.720;2023-06-14T02:57:43;11.00;;;7.08;;
20976;SDS011;10647;51.016;3.720;2023-06-14T03:00:12;8.68;;;6.78;;
20976;SDS011;10647;51.016;3.720;2023-06-14T03:02:40;8.58;;;6.97;;
20976;SDS011;10647;51.016;3.720;2023-06-14T03:05:08;12.33;;;7.42;;
20976;SDS011;10647;51.016;3.720;2023-06-14T03:07:36;12.73;;;7.05;;
20976;SDS011;10647;51.016;3.720;2023-06-14T03:10:06;11.00;;;7.17;;
20976;SDS011;10647;51.016;3.720;2023-06-14T03:12:38;11.85;;;7.35;;
20976;SDS011;10647;51.016;3.720;2023-06-14T03:15:06;12.28;;;6.97;;
20976;SDS011;10647;51.016;3.720;2023-06-14T03:20:05;13.32;;;6.85;;
20976;SDS011;10647;51.016;3.720;2023-06-14T03:22:34;14.40;;;6.80;;
20976;SDS011;10647;51.016;3.720;2023-06-14T03:25:03;11.65;;;7.30;;
20976;SDS011;10647;51.016;3.720;2023-06-14T03:27:30;13.78;;;6.85;;
20976;SDS011;10647;51.016;3.720;2023-06-14T03:29:58;13.53;;;7.60;;
20976;SDS011;10647;51.016;3.720;2023-06-14T03:32:26;12.13;;;6.70;;
20976;SDS011;10647;51.016;3.720;2023-06-14T03:34:53;12.35;;;6.75;;
20976;SDS011;10647;51.016;3.720;2023-06-14T03:37:21;12.90;;;7.35;;
20976;SDS011;10647;51.016;3.720;2023-06-14T03:39:48;11.90;;;6.87;;
20976;SDS011;10647;51.016;3.720;2023-06-14T03:42:16;12.30;;;7.70;;
20976;SDS011;10647;51.016;3.720;2023-06-14T03:44:44;16.62;;;6.70;;
20976;SDS011;10647;51.016;3.720;2023-06-14T03:47:11;9.63;;;6.05;;
20976;SDS011;10647;51.016;3.720;2023-06-14T03:49:39;12.17;;;6.40;;
20976;SDS011;10647;51.016;3.720;2023-06-14T03:52:07;12.05;;;7.20;;
20976;SDS011;10647;51.016;3.720;2023-06-14T03:54:35;12.85;;;7.45;;
20976;SDS011;10647;51.016;3.720;2023-06-14T03:57:02;12.53;;;7.15;;
20976;SDS011;10647;51.016;3.720;2023-06-14T03:59:31;16.27;;;6.90;;
20976;SDS011;10647;51.016;3.720;2023-06-14T04:01:59;12.47;;;7.22;;
20976;SDS011;10647;51.016;3.720;2023-06-14T04:04:26;12.85;;;6.83;;
20976;SDS011;10647;51.016;3.720;2023-06-14T04:06:59;11.20;;;6.42;;
20976;SDS011;10647;51.016;3.720;2023-06-14T04:09:26;11.78;;;6.80;;
20976;SDS011;10647;51.016;3.720;2023-06-14T04:11:54;15.38;;;6.87;;
20976;SDS011;10647;51.016;3.720;2023-06-14T04:14:21;14.73;;;6.85;;
20976;SDS011;10647;51.016;3.720;2023-06-14T04:16:50;12.60;;;6.95;;
20976;SDS011;10647;51.016;3.720;2023-06-14T04:19:17;11.15;;;6.35;;
20976;SDS011;10647;51.016;3.720;2023-06-14T04:21:45;11.10;;;6.80;;
20976;SDS011;10647;51.016;3.720;2023-06-14T04:24:12;10.60;;;6.53;;
20976;SDS011;10647;51.016;3.720;2023-06-14T04:26:45;8.90;;;6.17;;
20976;SDS011;10647;51.016;3.720;2023-06-14T04:29:11;9.88;;;6.60;;
20976;SDS011;10647;51.016;3.720;2023-06-14T04:31:42;10.55;;;6.00;;
20976;SDS011;10647;51.016;3.720;2023-06-14T04:34:10;8.98;;;5.92;;
20976;SDS011;10647;51.016;3.720;2023-06-14T04:36:40;10.23;;;6.35;;
20976;SDS011;10647;51.016;3.720;2023-06-14T04:39:09;13.30;;;6.12;;
20976;SDS011;10647;51.016;3.720;2023-06-14T04:41:36;12.15;;;5.83;;
20976;SDS011;10647;51.016;3.720;2023-06-14T04:44:04;14.50;;;6.78;;
20976;SDS011;10647;51.016;3.720;2023-06-14T04:46:33;13.00;;;5.85;;
20976;SDS011;10647;51.016;3.720;2023-06-14T04:49:02;11.50;;;6.80;;
20976;SDS011;10647;51.016;3.720;2023-06-14T04:51:29;10.63;;;6.37;;
20976;SDS011;10647;51.016;3.720;2023-06-14T04:53:59;10.65;;;5.90;;
20976;SDS011;10647;51.016;3.720;2023-06-14T04:56:27;12.28;;;6.20;;
20976;SDS011;10647;51.016;3.720;2023-06-14T04:58:55;12.58;;;7.15;;
20976;SDS011;10647;51.016;3.720;2023-06-14T05:01:22;11.33;;;6.42;;
20976;SDS011;10647;51.016;3.720;2023-06-14T05:03:50;12.73;;;7.22;;
20976;SDS011;10647;51.016;3.720;2023-06-14T05:06:17;11.57;;;6.20;;
20976;SDS011;10647;51.016;3.720;2023-06-14T05:08:45;13.10;;;6.60;;
20976;SDS011;10647;51.016;3.720;2023-06-14T05:11:14;9.15;;;6.12;;
20976;SDS011;10647;51.016;3.720;2023-06-14T05:13:42;10.90;;;6.45;;
20976;SDS011;10647;51.016;3.720;2023-06-14T05:16:13;13.48;;;6.87;;
20976;SDS011;10647;51.016;3.720;2023-06-14T05:18:42;12.68;;;6.40;;
20976;SDS011;10647;51.016;3.720;2023-06-14T05:21:14;9.13;;;5.85;;
20976;SDS011;10647;51.016;3.720;2023-06-14T05:23:48;9.85;;;6.08;;
20976;SDS011;10647;51.016;3.720;2023-06-14T05:26:13;12.73;;;6.30;;
20976;SDS011;10647;51.016;3.720;2023-06-14T05:28:47;12.15;;;6.72;;
20976;SDS011;10647;51.016;3.720;2023-06-14T05:31:15;10.72;;;6.20;;
20976;SDS011;10647;51.016;3.720;2023-06-14T05:36:13;12.03;;;6.17;;
20976;SDS011;10647;51.016;3.720;2023-06-14T05:38:40;13.35;;;6.67;;
20976;SDS011;10647;51.016;3.720;2023-06-14T05:41:08;10.00;;;6.35;;
20976;SDS011;10647;51.016;3.720;2023-06-14T05:43:36;13.38;;;6.67;;
20976;SDS011;10647;51.016;3.720;2023-06-14T05:46:04;12.30;;;6.58;;
20976;SDS011;10647;51.016;3.720;2023-06-14T05:48:32;14.38;;;6.60;;
20976;SDS011;10647;51.016;3.720;2023-06-14T05:50:59;13.45;;;6.35;;
20976;SDS011;10647;51.016;3.720;2023-06-14T05:53:29;12.93;;;6.37;;
20976;SDS011;10647;51.016;3.720;2023-06-14T05:55:56;15.93;;;6.75;;
20976;SDS011;10647;51.016;3.720;2023-06-14T05:58:24;11.88;;;6.55;;
20976;SDS011;10647;51.016;3.720;2023-06-14T06:00:51;10.80;;;6.37;;
20976;SDS011;10647;51.016;3.720;2023-06-14T06:03:22;11.22;;;6.53;;
20976;SDS011;10647;51.016;3.720;2023-06-14T06:05:50;10.70;;;6.70;;
20976;SDS011;10647;51.016;3.720;2023-06-14T06:08:19;12.23;;;6.35;;
20976;SDS011;10647;51.016;3.720;2023-06-14T06:10:51;13.65;;;6.30;;
20976;SDS011;10647;51.016;3.720;2023-06-14T06:13:19;14.63;;;7.22;;
20976;SDS011;10647;51.016;3.720;2023-06-14T06:15:48;11.48;;;6.95;;
20976;SDS011;10647;51.016;3.720;2023-06-14T06:18:16;15.95;;;6.45;;
20976;SDS011;10647;51.016;3.720;2023-06-14T06:20:43;14.10;;;6.90;;
20976;SDS011;10647;51.016;3.720;2023-06-14T06:23:12;9.18;;;6.58;;
20976;SDS011;10647;51.016;3.720;2023-06-14T06:25:40;10.48;;;6.33;;
20976;SDS011;10647;51.016;3.720;2023-06-14T06:28:08;12.07;;;6.65;;
20976;SDS011;10647;51.016;3.720;2023-06-14T06:30:36;10.70;;;6.85;;
20976;SDS011;10647;51.016;3.720;2023-06-14T06:33:04;11.70;;;6.92;;
20976;SDS011;10647;51.016;3.720;2023-06-14T06:35:32;10.38;;;6.78;;
20976;SDS011;10647;51.016;3.720;2023-06-14T06:38:00;11.78;;;6.87;;
20976;SDS011;10647;51.016;3.720;2023-06-14T06:40:28;14.83;;;7.03;;
20976;SDS011;10647;51.016;3.720;2023-06-14T06:42:58;16.42;;;7.05;;
20976;SDS011;10647;51.016;3.720;2023-06-14T06:45:31;10.00;;;6.97;;
20976;SDS011;10647;51.016;3.720;2023-06-14T06:48:00;10.15;;;7.08;;
20976;SDS011;10647;51.016;3.720;2023-06-14T06:50:27;12.40;;;7.62;;
20976;SDS011;10647;51.016;3.720;2023-06-14T06:52:55;11.57;;;6.62;;
20976;SDS011;10647;51.016;3.720;2023-06-14T06:55:23;14.30;;;6.65;;
20976;SDS011;10647;51.016;3.720;2023-06-14T06:57:51;12.80;;;6.40;;
20976;SDS011;10647;51.016;3.720;2023-06-14T07:00:19;15.80;;;6.62;;
20976;SDS011;10647;51.016;3.720;2023-06-14T07:02:47;15.90;;;6.30;;
20976;SDS011;10647;51.016;3.720;2023-06-14T07:05:17;12.60;;;6.97;;
20976;SDS011;10647;51.016;3.720;2023-06-14T07:07:44;12.47;;;6.60;;
20976;SDS011;10647;51.016;3.720;2023-06-14T07:10:17;14.43;;;6.37;;
20976;SDS011;10647;51.016;3.720;2023-06-14T07:12:51;11.68;;;5.78;;
20976;SDS011;10647;51.016;3.720;2023-06-14T07:15:20;9.70;;;6.35;;
20976;SDS011;10647;51.016;3.720;2023-06-14T07:17:47;8.38;;;5.47;;
20976;SDS011;10647;51.016;3.720;2023-06-14T07:20:16;12.25;;;6.55;;
20976;SDS011;10647;51.016;3.720;2023-06-14T07:22:44;11.18;;;6.05;;
20976;SDS011;10647;51.016;3.720;2023-06-14T07:25:12;12.73;;;6.10;;
20976;SDS011;10647;51.016;3.720;2023-06-14T07:27:40;10.43;;;5.47;;
20976;SDS011;10647;51.016;3.720;2023-06-14T07:30:09;10.28;;;5.92;;
20976;SDS011;10647;51.016;3.720;2023-06-14T07:32:37;18.80;;;5.65;;
20976;SDS011;10647;51.016;3.720;2023-06-14T07:35:05;10.60;;;5.80;;
20976;SDS011;10647;51.016;3.720;2023-06-14T07:37:33;11.83;;;5.60;;
20976;SDS011;10647;51.016;3.720;2023-06-14T07:40:02;10.18;;;5.85;;
20976;SDS011;10647;51.016;3.720;2023-06-14T07:42:31;11.83;;;5.92;;
20976;SDS011;10647;51.016;3.720;2023-06-14T07:45:01;8.80;;;5.40;;
20976;SDS011;10647;51.016;3.720;2023-06-14T07:47:32;10.23;;;6.03;;
20976;SDS011;10647;51.016;3.720;2023-06-14T07:50:02;12.25;;;6.67;;
20976;SDS011;10647;51.016;3.720;2023-06-14T07:52:30;6.35;;;5.60;;
20976;SDS011;10647;51.016;3.720;2023-06-14T07:55:00;14.65;;;5.40;;
20976;SDS011;10647;51.016;3.720;2023-06-14T07:57:27;14.05;;;5.45;;
20976;SDS011;10647;51.016;3.720;2023-06-14T07:59:55;13.68;;;5.90;;
20976;SDS011;10647;51.016;3.720;2023-06-14T08:02:22;10.72;;;5.90;;
20976;SDS011;10647;51.016;3.720;2023-06-14T08:05:02;12.10;;;6.45;;
20976;SDS011;10647;51.016;3.720;2023-06-14T08:07:30;9.78;;;5.70;;
20976;SDS011;10647;51.016;3.720;2023-06-14T08:10:00;8.73;;;5.40;;
20976;SDS011;10647;51.016;3.720;2023-06-14T08:12:27;7.12;;;5.03;;
20976;SDS011;10647;51.016;3.720;2023-06-14T08:14:58;8.15;;;5.30;;
20976;SDS011;10647;51.016;3.720;2023-06-14T08:17:25;9.15;;;5.72;;
20976;SDS011;10647;51.016;3.720;2023-06-14T08:19:53;9.63;;;5.15;;
20976;SDS011;10647;51.016;3.720;2023-06-14T08:22:23;9.28;;;5.87;;
20976;SDS011;10647;51.016;3.720;2023-06-14T08:24:53;10.80;;;5.72;;
20976;SDS011;10647;51.016;3.720;2023-06-14T08:27:21;8.63;;;5.45;;
20976;SDS011;10647;51.016;3.720;2023-06-14T08:29:49;13.78;;;5.60;;
20976;SDS011;10647;51.016;3.720;2023-06-14T08:32:17;11.70;;;5.55;;
20976;SDS011;10647;51.016;3.720;2023-06-14T08:34:44;10.38;;;5.58;;
20976;SDS011;10647;51.016;3.720;2023-06-14T08:37:15;10.95;;;5.47;;
20976;SDS011;10647;51.016;3.720;2023-06-14T08:39:42;12.28;;;5.53;;
20976;SDS011;10647;51.016;3.720;2023-06-14T08:42:12;11.22;;;5.33;;
20976;SDS011;10647;51.016;3.720;2023-06-14T08:44:41;8.63;;;4.95;;
20976;SDS011;10647;51.016;3.720;2023-06-14T08:47:09;8.48;;;5.15;;
20976;SDS011;10647;51.016;3.720;2023-06-14T08:49:38;12.78;;;5.83;;
20976;SDS011;10647;51.016;3.720;2023-06-14T08:52:10;10.28;;;5.17;;
20976;SDS011;10647;51.016;3.720;2023-06-14T08:54:41;8.85;;;5.42;;
20976;SDS011;10647;51.016;3.720;2023-06-14T08:57:14;11.18;;;5.47;;
20976;SDS011;10647;51.016;3.720;2023-06-14T08:59:40;10.75;;;5.85;;
20976;SDS011;10647;51.016;3.720;2023-06-14T09:02:16;10.40;;;5.58;;
20976;SDS011;10647;51.016;3.720;2023-06-14T09:04:45;8.83;;;5.30;;
20976;SDS011;10647;51.016;3.720;2023-06-14T09:07:16;7.20;;;5.20;;
20976;SDS011;10647;51.016;3.720;2023-06-14T09:09:49;8.70;;;5.53;;
20976;SDS011;10647;51.016;3.720;2023-06-14T09:12:20;11.18;;;5.80;;
20976;SDS011;10647;51.016;3.720;2023-06-14T09:14:48;8.65;;;5.58;;
20976;SDS011;10647;51.016;3.720;2023-06-14T09:17:15;7.50;;;5.08;;
20976;SDS011;10647;51.016;3.720;2023-06-14T09:19:45;11.40;;;5.20;;
20976;SDS011;10647;51.016;3.720;2023-06-14T09:22:12;7.92;;;5.42;;
20976;SDS011;10647;51.016;3.720;2023-06-14T09:24:42;8.25;;;5.33;;
20976;SDS011;10647;51.016;3.720;2023-06-14T09:27:14;12.07;;;5.62;;
20976;SDS011;10647;51.016;3.720;2023-06-14T09:29:46;10.90;;;5.58;;
20976;SDS011;10647;51.016;3.720;2023-06-14T09:32:14;11.03;;;5.20;;
20976;SDS011;10647;51.016;3.720;2023-06-14T09:34:42;10.00;;;5.30;;
20976;SDS011;10647;51.016;3.720;2023-06-14T09:37:09;8.25;;;5.12;;
20976;SDS011;10647;51.016;3.720;2023-06-14T09:39:51;9.40;;;4.90;;
20976;SDS011;10647;51.016;3.720;2023-06-14T09:42:19;7.45;;;4.65;;
20976;SDS011;10647;51.016;3.720;2023-06-14T09:44:48;10.23;;;5.30;;
20976;SDS011;10647;51.016;3.720;2023-06-14T09:47:19;9.70;;;4.90;;
20976;SDS011;10647;51.016;3.720;2023-06-14T09:49:49;13.08;;;4.95;;
20976;SDS011;10647;51.016;3.720;2023-06-14T09:52:19;9.43;;;5.65;;
20976;SDS011;10647;51.016;3.720;2023-06-14T09:54:48;9.63;;;5.55;;
20976;SDS011;10647;51.016;3.720;2023-06-14T09:57:16;11.00;;;5.50;;
20976;SDS011;10647;51.016;3.720;2023-06-14T09:59:46;8.10;;;5.25;;
20976;SDS011;10647;51.016;3.720;2023-06-14T10:02:34;8.38;;;5.50;;
20976;SDS011;10647;51.016;3.720;2023-06-14T10:04:50;8.95;;;5.20;;
20976;SDS011;10647;51.016;3.720;2023-06-14T10:07:40;8.93;;;5.25;;
20976;SDS011;10647;51.016;3.720;2023-06-14T10:10:22;7.95;;;4.60;;
20976;SDS011;10647;51.016;3.720;2023-06-14T10:12:54;11.40;;;5.42;;
20976;SDS011;10647;51.016;3.720;2023-06-14T10:15:30;6.40;;;5.35;;
20976;SDS011;10647;51.016;3.720;2023-06-14T10:18:07;7.90;;;5.37;;
20976;SDS011;10647;51.016;3.720;2023-06-14T10:20:57;11.95;;;6.53;;
20976;SDS011;10647;51.016;3.720;2023-06-14T10:23:32;14.80;;;6.15;;
20976;SDS011;10647;51.016;3.720;2023-06-14T10:26:02;11.28;;;5.05;;
20976;SDS011;10647;51.016;3.720;2023-06-14T10:28:29;9.13;;;5.25;;
20976;SDS011;10647;51.016;3.720;2023-06-14T10:31:19;7.97;;;4.92;;
20976;SDS011;10647;51.016;3.720;2023-06-14T10:33:31;8.98;;;5.05;;
20976;SDS011;10647;51.016;3.720;2023-06-14T10:36:10;6.62;;;5.35;;
20976;SDS011;10647;51.016;3.720;2023-06-14T10:39:04;10.70;;;5.55;;
20976;SDS011;10647;51.016;3.720;2023-06-14T10:41:52;9.93;;;4.85;;
20976;SDS011;10647;51.016;3.720;2023-06-14T10:46:52;8.53;;;4.75;;
20976;SDS011;10647;51.016;3.720;2023-06-14T10:49:42;10.18;;;5.70;;
20976;SDS011;10647;51.016;3.720;2023-06-14T10:52:10;10.30;;;6.00;;
20976;SDS011;10647;51.016;3.720;2023-06-14T10:55:05;8.25;;;5.72;;
20976;SDS011;10647;51.016;3.720;2023-06-14T10:57:44;11.73;;;5.60;;
20976;SDS011;10647;51.016;3.720;2023-06-14T11:00:15;9.75;;;5.50;;
20976;SDS011;10647;51.016;3.720;2023-06-14T11:02:47;9.30;;;5.60;;
20976;SDS011;10647;51.016;3.720;2023-06-14T11:10:45;8.53;;;5.15;;
20976;SDS011;10647;51.016;3.720;2023-06-14T11:13:15;9.25;;;5.08;;
20976;SDS011;10647;51.016;3.720;2023-06-14T11:15:45;13.70;;;5.47;;
20976;SDS011;10647;51.016;3.720;2023-06-14T11:18:15;10.88;;;5.40;;
20976;SDS011;10647;51.016;3.720;2023-06-14T11:20:45;8.68;;;5.22;;
20976;SDS011;10647;51.016;3.720;2023-06-14T11:23:13;8.48;;;5.62;;
20976;SDS011;10647;51.016;3.720;2023-06-14T11:25:41;8.33;;;5.12;;
20976;SDS011;10647;51.016;3.720;2023-06-14T11:28:09;7.28;;;5.62;;
20976;SDS011;10647;51.016;3.720;2023-06-14T11:30:36;15.65;;;5.40;;
20976;SDS011;10647;51.016;3.720;2023-06-14T11:33:04;9.23;;;5.87;;
20976;SDS011;10647;51.016;3.720;2023-06-14T11:35:33;8.70;;;5.58;;
20976;SDS011;10647;51.016;3.720;2023-06-14T11:38:07;6.70;;;5.03;;
20976;SDS011;10647;51.016;3.720;2023-06-14T11:40:37;7.47;;;5.22;;
20976;SDS011;10647;51.016;3.720;2023-06-14T11:43:05;10.28;;;5.62;;
20976;SDS011;10647;51.016;3.720;2023-06-14T11:45:33;9.73;;;4.90;;
20976;SDS011;10647;51.016;3.720;2023-06-14T11:48:01;7.70;;;5.25;;
20976;SDS011;10647;51.016;3.720;2023-06-14T11:50:28;9.60;;;4.70;;
20976;SDS011;10647;51.016;3.720;2023-06-14T11:52:57;7.33;;;5.00;;
20976;SDS011;10647;51.016;3.720;2023-06-14T11:55:28;11.28;;;5.00;;
20976;SDS011;10647;51.016;3.720;2023-06-14T11:58:02;12.60;;;5.58;;
20976;SDS011;10647;51.016;3.720;2023-06-14T12:00:30;7.60;;;4.90;;
20976;SDS011;10647;51.016;3.720;2023-06-14T12:02:57;7.30;;;4.87;;
20976;SDS011;10647;51.016;3.720;2023-06-14T12:05:25;7.30;;;4.83;;
20976;SDS011;10647;51.016;3.720;2023-06-14T12:08:01;13.50;;;4.90;;
20976;SDS011;10647;51.016;3.720;2023-06-14T12:10:31;8.05;;;4.90;;
20976;SDS011;10647;51.016;3.720;2023-06-14T12:13:16;7.70;;;4.87;;
20976;SDS011;10647;51.016;3.720;2023-06-14T12:15:53;8.20;;;4.92;;
20976;SDS011;10647;51.016;3.720;2023-06-14T12:18:17;8.63;;;4.92;;
20976;SDS011;10647;51.016;3.720;2023-06-14T12:20:47;8.33;;;4.95;;
20976;SDS011;10647;51.016;3.720;2023-06-14T12:23:17;11.88;;;5.30;;
20976;SDS011;10647;51.016;3.720;2023-06-14T12:25:45;10.68;;;5.35;;
20976;SDS011;10647;51.016;3.720;2023-06-14T12:28:14;8.48;;;4.20;;
20976;SDS011;10647;51.016;3.720;2023-06-14T12:30:43;11.68;;;5.62;;
20976;SDS011;10647;51.016;3.720;2023-06-14T12:33:11;7.05;;;4.70;;
20976;SDS011;10647;51.016;3.720;2023-06-14T12:35:38;6.92;;;4.85;;
20976;SDS011;10647;51.016;3.720;2023-06-14T12:38:06;6.42;;;4.45;;
20976;SDS011;10647;51.016;3.720;2023-06-14T12:40:36;10.88;;;4.90;;
20976;SDS011;10647;51.016;3.720;2023-06-14T12:43:05;10.23;;;5.40;;
20976;SDS011;10647;51.016;3.720;2023-06-14T12:45:33;7.25;;;5.17;;
20976;SDS011;10647;51.016;3.720;2023-06-14T12:48:01;13.32;;;5.22;;
20976;SDS011;10647;51.016;3.720;2023-06-14T12:50:29;8.03;;;5.00;;
20976;SDS011;10647;51.016;3.720;2023-06-14T12:52:58;6.65;;;4.33;;
20976;SDS011;10647;51.016;3.720;2023-06-14T12:55:26;11.95;;;4.65;;
20976;SDS011;10647;51.016;3.720;2023-06-14T12:57:53;9.48;;;5.12;;
20976;SDS011;10647;51.016;3.720;2023-06-14T13:00:22;6.28;;;4.45;;
20976;SDS011;10647;51.016;3.720;2023-06-14T13:02:51;6.03;;;4.37;;
20976;SDS011;10647;51.016;3.720;2023-06-14T13:05:21;9.20;;;4.80;;
20976;SDS011;10647;51.016;3.720;2023-06-14T13:07:48;17.17;;;4.60;;
20976;SDS011;10647;51.016;3.720;2023-06-14T13:10:22;4.92;;;4.42;;
20976;SDS011;10647;51.016;3.720;2023-06-14T13:12:49;10.05;;;4.17;;
20976;SDS011;10647;51.016;3.720;2023-06-14T13:15:17;8.40;;;4.22;;
20976;SDS011;10647;51.016;3.720;2023-06-14T13:17:45;8.08;;;3.77;;
20976;SDS011;10647;51.016;3.720;2023-06-14T13:20:14;6.60;;;3.45;;
20976;SDS011;10647;51.016;3.720;2023-06-14T13:22:44;10.40;;;3.98;;
20976;SDS011;10647;51.016;3.720;2023-06-14T13:25:12;8.13;;;3.90;;
20976;SDS011;10647;51.016;3.720;2023-06-14T13:27:40;6.35;;;3.40;;
20976;SDS011;10647;51.016;3.720;2023-06-14T13:30:08;6.67;;;3.70;;
20976;SDS011;10647;51.016;3.720;2023-06-14T13:32:37;5.00;;;3.20;;
20976;SDS011;10647;51.016;3.720;2023-06-14T13:35:04;9.20;;;3.83;;
20976;SDS011;10647;51.016;3.720;2023-06-14T13:37:32;5.62;;;3.27;;
20976;SDS011;10647;51.016;3.720;2023-06-14T13:40:00;6.03;;;3.50;;
20976;SDS011;10647;51.016;3.720;2023-06-14T13:42:27;6.20;;;3.52;;
20976;SDS011;10647;51.016;3.720;2023-06-14T13:44:57;8.10;;;3.58;;
20976;SDS011;10647;51.016;3.720;2023-06-14T13:50:15;10.75;;;3.22;;
20976;SDS011;10647;51.016;3.720;2023-06-14T13:52:43;8.38;;;3.17;;
20976;SDS011;10647;51.016;3.720;2023-06-14T13:55:12;8.83;;;3.40;;
20976;SDS011;10647;51.016;3.720;2023-06-14T13:57:41;8.15;;;3.50;;
20976;SDS011;10647;51.016;3.720;2023-06-14T14:00:09;6.42;;;3.20;;
20976;SDS011;10647;51.016;3.720;2023-06-14T14:02:37;5.70;;;3.50;;
20976;SDS011;10647;51.016;3.720;2023-06-14T14:05:07;8.43;;;3.58;;
20976;SDS011;10647;51.016;3.720;2023-06-14T14:07:35;6.08;;;3.15;;
20976;SDS011;10647;51.016;3.720;2023-06-14T14:10:04;5.60;;;3.50;;
20976;SDS011;10647;51.016;3.720;2023-06-14T14:12:33;6.37;;;3.17;;
20976;SDS011;10647;51.016;3.720;2023-06-14T14:15:00;5.10;;;3.15;;
20976;SDS011;10647;51.016;3.720;2023-06-14T14:17:28;7.40;;;3.00;;
20976;SDS011;10647;51.016;3.720;2023-06-14T14:19:56;6.17;;;3.20;;
20976;SDS011;10647;51.016;3.720;2023-06-14T14:22:23;6.08;;;3.25;;
20976;SDS011;10647;51.016;3.720;2023-06-14T14:24:51;6.58;;;3.17;;
20976;SDS011;10647;51.016;3.720;2023-06-14T14:27:18;5.35;;;3.10;;
20976;SDS011;10647;51.016;3.720;2023-06-14T14:29:46;8.13;;;3.47;;
20976;SDS011;10647;51.016;3.720;2023-06-14T14:32:13;7.58;;;3.08;;
20976;SDS011;10647;51.016;3.720;2023-06-14T14:34:41;7.15;;;3.00;;
20976;SDS011;10647;51.016;3.720;2023-06-14T14:37:08;8.45;;;3.00;;
20976;SDS011;10647;51.016;3.720;2023-06-14T14:39:36;10.23;;;3.22;;
20976;SDS011;10647;51.016;3.720;2023-06-14T14:42:04;9.30;;;3.02;;
20976;SDS011;10647;51.016;3.720;2023-06-14T14:44:33;5.42;;;2.87;;
20976;SDS011;10647;51.016;3.720;2023-06-14T14:47:01;6.58;;;2.77;;
20976;SDS011;10647;51.016;3.720;2023-06-14T14:49:29;4.00;;;2.65;;
20976;SDS011;10647;51.016;3.720;2023-06-14T14:51:57;6.90;;;2.87;;
20976;SDS011;10647;51.016;3.720;2023-06-14T14:54:25;9.63;;;3.10;;
20976;SDS011;10647;51.016;3.720;2023-06-14T14:56:55;8.80;;;2.85;;
20976;SDS011;10647;51.016;3.720;2023-06-14T14:59:23;5.60;;;2.60;;
20976;SDS011;10647;51.016;3.720;2023-06-14T15:01:50;6.05;;;2.70;;
20976;SDS011;10647;51.016;3.720;2023-06-14T15:04:18;6.22;;;2.67;;
20976;SDS011;10647;51.016;3.720;2023-06-14T15:06:45;4.47;;;2.30;;
20976;SDS011;10647;51.016;3.720;2023-06-14T15:09:13;5.03;;;2.40;;
20976;SDS011;10647;51.016;3.720;2023-06-14T15:11:40;5.67;;;2.35;;
20976;SDS011;10647;51.016;3.720;2023-06-14T15:14:10;6.85;;;2.17;;
20976;SDS011;10647;51.016;3.720;2023-06-14T15:16:39;7.53;;;2.40;;
20976;SDS011;10647;51.016;3.720;2023-06-14T15:19:07;6.90;;;2.40;;